sensor_id;sensor_type;location;lat;lon;timestamp;P1;durP1;ratioP1;P2;durP2;ratioP2
8831;SDS011;4452;50.756;4.472;2023-11-21T00:00:20;86.18;;;15.88;;
8831;SDS011;4452;50.756;4.472;2023-11-21T00:02:46;104.32;;;17.92;;
8831;SDS011;4452;50.756;4.472;2023-11-21T00:05:12;104.75;;;18.27;;
8831;SDS011;4452;50.756;4.472;2023-11-21T00:07:42;94.15;;;16.98;;
8831;SDS011;4452;50.756;4.472;2023-11-21T00:10:08;106.25;;;18.25;;
8831;SDS011;4452;50.756;4.472;2023-11-21T00:12:35;102.53;;;18.10;;
8831;SDS011;4452;50.756;4.472;2023-11-21T00:15:01;98.32;;;17.52;;
8831;SDS011;4452;50.756;4.472;2023-11-21T00:17:28;90.93;;;17.27;;
8831;SDS011;4452;50.756;4.472;2023-11-21T00:19:54;107.53;;;17.40;;
8831;SDS011;4452;50.756;4.472;2023-11-21T00:22:19;98.03;;;18.52;;
8831;SDS011;4452;50.756;4.472;2023-11-21T00:24:45;99.97;;;18.45;;
8831;SDS011;4452;50.756;4.472;2023-11-21T00:27:11;110.20;;;18.45;;
8831;SDS011;4452;50.756;4.472;2023-11-21T00:29:37;107.25;;;18.77;;
8831;SDS011;4452;50.756;4.472;2023-11-21T00:32:04;101.63;;;18.27;;
8831;SDS011;4452;50.756;4.472;2023-11-21T00:34:30;104.45;;;16.67;;
8831;SDS011;4452;50.756;4.472;2023-11-21T00:36:56;100.13;;;18.10;;
8831;SDS011;4452;50.756;4.472;2023-11-21T00:39:22;100.05;;;18.73;;
8831;SDS011;4452;50.756;4.472;2023-11-21T00:41:49;76.22;;;14.38;;
8831;SDS011;4452;50.756;4.472;2023-11-21T00:44:14;90.63;;;18.42;;
8831;SDS011;4452;50.756;4.472;2023-11-21T00:46:41;85.47;;;19.42;;
8831;SDS011;4452;50.756;4.472;2023-11-21T00:49:06;88.13;;;17.20;;
8831;SDS011;4452;50.756;4.472;2023-11-21T00:51:32;94.63;;;19.48;;
8831;SDS011;4452;50.756;4.472;2023-11-21T00:53:58;127.03;;;21.13;;
8831;SDS011;4452;50.756;4.472;2023-11-21T00:56:24;91.93;;;17.92;;
8831;SDS011;4452;50.756;4.472;2023-11-21T00:58:49;97.00;;;18.73;;
8831;SDS011;4452;50.756;4.472;2023-11-21T01:01:20;102.10;;;21.17;;
8831;SDS011;4452;50.756;4.472;2023-11-21T01:03:49;98.35;;;19.17;;
8831;SDS011;4452;50.756;4.472;2023-11-21T01:06:15;100.03;;;19.90;;
8831;SDS011;4452;50.756;4.472;2023-11-21T01:08:41;93.57;;;18.48;;
8831;SDS011;4452;50.756;4.472;2023-11-21T01:11:08;96.85;;;19.13;;
8831;SDS011;4452;50.756;4.472;2023-11-21T01:13:35;102.90;;;20.02;;
8831;SDS011;4452;50.756;4.472;2023-11-21T01:16:01;110.40;;;20.13;;
8831;SDS011;4452;50.756;4.472;2023-11-21T01:18:26;98.82;;;18.52;;
8831;SDS011;4452;50.756;4.472;2023-11-21T01:20:52;108.85;;;20.95;;
8831;SDS011;4452;50.756;4.472;2023-11-21T01:23:18;93.30;;;19.45;;
8831;SDS011;4452;50.756;4.472;2023-11-21T01:25:44;100.45;;;20.30;;
8831;SDS011;4452;50.756;4.472;2023-11-21T01:28:10;111.63;;;20.20;;
8831;SDS011;4452;50.756;4.472;2023-11-21T01:30:36;96.75;;;19.75;;
8831;SDS011;4452;50.756;4.472;2023-11-21T01:33:02;104.70;;;20.13;;
8831;SDS011;4452;50.756;4.472;2023-11-21T01:35:28;98.18;;;20.63;;
8831;SDS011;4452;50.756;4.472;2023-11-21T01:37:54;102.65;;;19.63;;
8831;SDS011;4452;50.756;4.472;2023-11-21T01:40:19;95.95;;;19.98;;
8831;SDS011;4452;50.756;4.472;2023-11-21T01:42:46;90.70;;;20.52;;
8831;SDS011;4452;50.756;4.472;2023-11-21T01:45:12;103.40;;;20.15;;
8831;SDS011;4452;50.756;4.472;2023-11-21T01:47:38;97.50;;;19.92;;
8831;SDS011;4452;50.756;4.472;2023-11-21T01:50:06;98.70;;;21.67;;
8831;SDS011;4452;50.756;4.472;2023-11-21T01:52:36;84.53;;;21.02;;
8831;SDS011;4452;50.756;4.472;2023-11-21T01:55:04;83.90;;;19.38;;
8831;SDS011;4452;50.756;4.472;2023-11-21T01:57:31;77.30;;;18.77;;
8831;SDS011;4452;50.756;4.472;2023-11-21T01:59:57;90.57;;;19.50;;
8831;SDS011;4452;50.756;4.472;2023-11-21T02:02:25;92.97;;;20.20;;
8831;SDS011;4452;50.756;4.472;2023-11-21T02:04:50;90.65;;;18.45;;
8831;SDS011;4452;50.756;4.472;2023-11-21T02:07:16;98.93;;;20.73;;
8831;SDS011;4452;50.756;4.472;2023-11-21T02:09:44;87.75;;;19.67;;
8831;SDS011;4452;50.756;4.472;2023-11-21T02:12:10;100.05;;;20.98;;
8831;SDS011;4452;50.756;4.472;2023-11-21T02:14:36;80.25;;;19.25;;
8831;SDS011;4452;50.756;4.472;2023-11-21T02:17:02;86.38;;;19.40;;
8831;SDS011;4452;50.756;4.472;2023-11-21T02:19:28;86.90;;;19.33;;
8831;SDS011;4452;50.756;4.472;2023-11-21T02:21:56;81.90;;;19.20;;
8831;SDS011;4452;50.756;4.472;2023-11-21T02:24:31;77.38;;;19.25;;
8831;SDS011;4452;50.756;4.472;2023-11-21T02:26:57;99.97;;;21.58;;
8831;SDS011;4452;50.756;4.472;2023-11-21T02:29:23;87.68;;;20.98;;
8831;SDS011;4452;50.756;4.472;2023-11-21T02:31:53;87.95;;;19.45;;
8831;SDS011;4452;50.756;4.472;2023-11-21T02:34:19;92.72;;;19.25;;
8831;SDS011;4452;50.756;4.472;2023-11-21T02:36:45;82.53;;;20.52;;
8831;SDS011;4452;50.756;4.472;2023-11-21T02:39:12;92.93;;;20.33;;
8831;SDS011;4452;50.756;4.472;2023-11-21T02:41:38;78.65;;;18.05;;
8831;SDS011;4452;50.756;4.472;2023-11-21T02:44:04;91.65;;;19.92;;
8831;SDS011;4452;50.756;4.472;2023-11-21T02:46:31;85.28;;;20.15;;
8831;SDS011;4452;50.756;4.472;2023-11-21T02:48:59;84.75;;;19.08;;
8831;SDS011;4452;50.756;4.472;2023-11-21T02:51:25;92.10;;;21.10;;
8831;SDS011;4452;50.756;4.472;2023-11-21T02:53:51;81.72;;;19.33;;
8831;SDS011;4452;50.756;4.472;2023-11-21T02:56:17;90.55;;;20.67;;
8831;SDS011;4452;50.756;4.472;2023-11-21T02:58:43;80.03;;;19.27;;
8831;SDS011;4452;50.756;4.472;2023-11-21T03:01:10;67.53;;;17.83;;
8831;SDS011;4452;50.756;4.472;2023-11-21T03:03:37;84.40;;;18.25;;
8831;SDS011;4452;50.756;4.472;2023-11-21T03:06:05;83.63;;;17.75;;
8831;SDS011;4452;50.756;4.472;2023-11-21T03:08:31;71.57;;;16.73;;
8831;SDS011;4452;50.756;4.472;2023-11-21T03:10:57;72.20;;;16.75;;
8831;SDS011;4452;50.756;4.472;2023-11-21T03:13:23;85.15;;;17.58;;
8831;SDS011;4452;50.756;4.472;2023-11-21T03:15:49;72.97;;;17.58;;
8831;SDS011;4452;50.756;4.472;2023-11-21T03:18:14;82.93;;;18.67;;
8831;SDS011;4452;50.756;4.472;2023-11-21T03:20:40;80.63;;;17.42;;
8831;SDS011;4452;50.756;4.472;2023-11-21T03:23:11;83.40;;;19.95;;
8831;SDS011;4452;50.756;4.472;2023-11-21T03:25:37;78.35;;;18.67;;
8831;SDS011;4452;50.756;4.472;2023-11-21T03:28:02;80.38;;;19.58;;
8831;SDS011;4452;50.756;4.472;2023-11-21T03:30:28;78.18;;;17.52;;
8831;SDS011;4452;50.756;4.472;2023-11-21T03:32:54;80.13;;;17.30;;
8831;SDS011;4452;50.756;4.472;2023-11-21T03:35:20;81.65;;;18.83;;
8831;SDS011;4452;50.756;4.472;2023-11-21T03:37:46;76.68;;;17.55;;
8831;SDS011;4452;50.756;4.472;2023-11-21T03:40:12;80.88;;;19.90;;
8831;SDS011;4452;50.756;4.472;2023-11-21T03:42:38;73.53;;;16.75;;
8831;SDS011;4452;50.756;4.472;2023-11-21T03:45:05;74.60;;;18.88;;
8831;SDS011;4452;50.756;4.472;2023-11-21T03:47:31;78.40;;;18.45;;
8831;SDS011;4452;50.756;4.472;2023-11-21T03:49:57;64.43;;;16.23;;
8831;SDS011;4452;50.756;4.472;2023-11-21T03:52:22;79.07;;;17.20;;
8831;SDS011;4452;50.756;4.472;2023-11-21T03:54:49;73.53;;;16.48;;
8831;SDS011;4452;50.756;4.472;2023-11-21T03:57:14;75.93;;;17.75;;
8831;SDS011;4452;50.756;4.472;2023-11-21T03:59:40;79.95;;;15.93;;
8831;SDS011;4452;50.756;4.472;2023-11-21T04:02:07;71.50;;;16.02;;
8831;SDS011;4452;50.756;4.472;2023-11-21T04:04:33;75.20;;;15.57;;
8831;SDS011;4452;50.756;4.472;2023-11-21T04:06:59;68.40;;;15.93;;
8831;SDS011;4452;50.756;4.472;2023-11-21T04:09:25;71.22;;;16.80;;
8831;SDS011;4452;50.756;4.472;2023-11-21T04:11:51;73.75;;;16.55;;
8831;SDS011;4452;50.756;4.472;2023-11-21T04:14:17;67.32;;;15.20;;
8831;SDS011;4452;50.756;4.472;2023-11-21T04:16:43;72.25;;;16.17;;
8831;SDS011;4452;50.756;4.472;2023-11-21T04:19:09;67.85;;;15.30;;
8831;SDS011;4452;50.756;4.472;2023-11-21T04:21:35;81.88;;;16.65;;
8831;SDS011;4452;50.756;4.472;2023-11-21T04:24:04;77.75;;;18.63;;
8831;SDS011;4452;50.756;4.472;2023-11-21T04:26:31;84.90;;;18.20;;
8831;SDS011;4452;50.756;4.472;2023-11-21T04:28:56;79.20;;;18.15;;
8831;SDS011;4452;50.756;4.472;2023-11-21T04:31:22;73.10;;;17.88;;
8831;SDS011;4452;50.756;4.472;2023-11-21T04:33:49;86.38;;;21.55;;
8831;SDS011;4452;50.756;4.472;2023-11-21T04:36:14;80.88;;;18.88;;
8831;SDS011;4452;50.756;4.472;2023-11-21T04:38:40;78.47;;;20.98;;
8831;SDS011;4452;50.756;4.472;2023-11-21T04:41:06;88.13;;;20.08;;
8831;SDS011;4452;50.756;4.472;2023-11-21T04:43:32;73.22;;;19.77;;
8831;SDS011;4452;50.756;4.472;2023-11-21T04:45:57;77.40;;;20.55;;
8831;SDS011;4452;50.756;4.472;2023-11-21T04:48:23;87.38;;;20.20;;
8831;SDS011;4452;50.756;4.472;2023-11-21T04:50:49;82.90;;;20.67;;
8831;SDS011;4452;50.756;4.472;2023-11-21T04:53:14;91.70;;;21.50;;
8831;SDS011;4452;50.756;4.472;2023-11-21T04:55:40;86.50;;;20.58;;
8831;SDS011;4452;50.756;4.472;2023-11-21T04:58:06;86.05;;;22.23;;
8831;SDS011;4452;50.756;4.472;2023-11-21T05:00:33;82.03;;;21.58;;
8831;SDS011;4452;50.756;4.472;2023-11-21T05:02:59;83.05;;;22.63;;
8831;SDS011;4452;50.756;4.472;2023-11-21T05:05:26;95.80;;;21.50;;
8831;SDS011;4452;50.756;4.472;2023-11-21T05:07:52;90.90;;;23.05;;
8831;SDS011;4452;50.756;4.472;2023-11-21T05:10:18;83.80;;;21.30;;
8831;SDS011;4452;50.756;4.472;2023-11-21T05:12:44;82.15;;;21.83;;
8831;SDS011;4452;50.756;4.472;2023-11-21T05:15:13;104.95;;;23.55;;
8831;SDS011;4452;50.756;4.472;2023-11-21T05:17:40;86.10;;;22.70;;
8831;SDS011;4452;50.756;4.472;2023-11-21T05:20:13;85.53;;;23.75;;
8831;SDS011;4452;50.756;4.472;2023-11-21T05:22:41;88.97;;;23.13;;
8831;SDS011;4452;50.756;4.472;2023-11-21T05:25:09;100.45;;;24.05;;
8831;SDS011;4452;50.756;4.472;2023-11-21T05:27:36;88.70;;;25.42;;
8831;SDS011;4452;50.756;4.472;2023-11-21T05:30:02;93.32;;;24.40;;
8831;SDS011;4452;50.756;4.472;2023-11-21T05:32:30;91.75;;;24.73;;
8831;SDS011;4452;50.756;4.472;2023-11-21T05:34:56;84.05;;;24.63;;
8831;SDS011;4452;50.756;4.472;2023-11-21T05:37:22;87.30;;;23.92;;
8831;SDS011;4452;50.756;4.472;2023-11-21T05:39:48;89.00;;;24.17;;
8831;SDS011;4452;50.756;4.472;2023-11-21T05:42:14;109.68;;;26.23;;
8831;SDS011;4452;50.756;4.472;2023-11-21T05:44:41;91.78;;;25.15;;
8831;SDS011;4452;50.756;4.472;2023-11-21T05:47:08;91.93;;;22.92;;
8831;SDS011;4452;50.756;4.472;2023-11-21T05:49:34;99.22;;;25.42;;
8831;SDS011;4452;50.756;4.472;2023-11-21T05:52:00;90.97;;;23.88;;
8831;SDS011;4452;50.756;4.472;2023-11-21T05:54:26;83.63;;;25.10;;
8831;SDS011;4452;50.756;4.472;2023-11-21T05:56:51;86.25;;;24.25;;
8831;SDS011;4452;50.756;4.472;2023-11-21T05:59:17;94.07;;;24.23;;
8831;SDS011;4452;50.756;4.472;2023-11-21T06:01:45;125.70;;;24.35;;
8831;SDS011;4452;50.756;4.472;2023-11-21T06:04:11;89.38;;;22.55;;
8831;SDS011;4452;50.756;4.472;2023-11-21T06:06:38;94.18;;;21.83;;
8831;SDS011;4452;50.756;4.472;2023-11-21T06:09:04;74.85;;;21.15;;
8831;SDS011;4452;50.756;4.472;2023-11-21T06:11:37;82.15;;;21.65;;
8831;SDS011;4452;50.756;4.472;2023-11-21T06:14:03;95.40;;;22.70;;
8831;SDS011;4452;50.756;4.472;2023-11-21T06:16:28;81.45;;;20.48;;
8831;SDS011;4452;50.756;4.472;2023-11-21T06:18:54;86.22;;;21.92;;
8831;SDS011;4452;50.756;4.472;2023-11-21T06:21:20;77.10;;;21.20;;
8831;SDS011;4452;50.756;4.472;2023-11-21T06:23:45;78.47;;;21.88;;
8831;SDS011;4452;50.756;4.472;2023-11-21T06:26:11;82.43;;;22.75;;
8831;SDS011;4452;50.756;4.472;2023-11-21T06:28:38;80.05;;;22.00;;
8831;SDS011;4452;50.756;4.472;2023-11-21T06:31:03;77.90;;;23.15;;
8831;SDS011;4452;50.756;4.472;2023-11-21T06:33:33;88.35;;;23.50;;
8831;SDS011;4452;50.756;4.472;2023-11-21T06:35:59;82.57;;;25.00;;
8831;SDS011;4452;50.756;4.472;2023-11-21T06:38:28;81.10;;;22.63;;
8831;SDS011;4452;50.756;4.472;2023-11-21T06:40:57;89.45;;;22.77;;
8831;SDS011;4452;50.756;4.472;2023-11-21T06:43:23;82.88;;;23.55;;
8831;SDS011;4452;50.756;4.472;2023-11-21T06:45:49;95.72;;;22.92;;
8831;SDS011;4452;50.756;4.472;2023-11-21T06:48:14;95.28;;;23.80;;
8831;SDS011;4452;50.756;4.472;2023-11-21T06:50:40;93.25;;;28.10;;
8831;SDS011;4452;50.756;4.472;2023-11-21T06:53:06;91.70;;;26.77;;
8831;SDS011;4452;50.756;4.472;2023-11-21T06:55:33;103.30;;;26.75;;
8831;SDS011;4452;50.756;4.472;2023-11-21T06:57:59;94.75;;;27.58;;
8831;SDS011;4452;50.756;4.472;2023-11-21T07:00:25;93.50;;;27.05;;
8831;SDS011;4452;50.756;4.472;2023-11-21T07:02:53;96.55;;;26.23;;
8831;SDS011;4452;50.756;4.472;2023-11-21T07:05:20;92.55;;;26.70;;
8831;SDS011;4452;50.756;4.472;2023-11-21T07:07:47;94.10;;;25.90;;
8831;SDS011;4452;50.756;4.472;2023-11-21T07:10:13;103.68;;;23.27;;
8831;SDS011;4452;50.756;4.472;2023-11-21T07:12:39;86.53;;;23.55;;
8831;SDS011;4452;50.756;4.472;2023-11-21T07:15:05;83.63;;;23.95;;
8831;SDS011;4452;50.756;4.472;2023-11-21T07:17:34;89.30;;;23.55;;
8831;SDS011;4452;50.756;4.472;2023-11-21T07:20:00;106.07;;;26.02;;
8831;SDS011;4452;50.756;4.472;2023-11-21T07:22:26;110.85;;;26.10;;
8831;SDS011;4452;50.756;4.472;2023-11-21T07:24:52;108.45;;;26.08;;
8831;SDS011;4452;50.756;4.472;2023-11-21T07:27:18;106.35;;;26.40;;
8831;SDS011;4452;50.756;4.472;2023-11-21T07:29:43;99.40;;;25.75;;
8831;SDS011;4452;50.756;4.472;2023-11-21T07:32:09;107.88;;;26.70;;
8831;SDS011;4452;50.756;4.472;2023-11-21T07:34:35;100.78;;;27.23;;
8831;SDS011;4452;50.756;4.472;2023-11-21T07:37:02;108.03;;;25.98;;
8831;SDS011;4452;50.756;4.472;2023-11-21T07:39:30;108.05;;;26.88;;
8831;SDS011;4452;50.756;4.472;2023-11-21T07:41:59;109.93;;;26.33;;
8831;SDS011;4452;50.756;4.472;2023-11-21T07:44:28;110.82;;;25.92;;
8831;SDS011;4452;50.756;4.472;2023-11-21T07:47:01;109.25;;;27.75;;
8831;SDS011;4452;50.756;4.472;2023-11-21T07:49:31;106.03;;;27.75;;
8831;SDS011;4452;50.756;4.472;2023-11-21T07:51:58;112.18;;;26.77;;
8831;SDS011;4452;50.756;4.472;2023-11-21T07:54:24;98.55;;;24.63;;
8831;SDS011;4452;50.756;4.472;2023-11-21T07:56:49;99.43;;;25.40;;
8831;SDS011;4452;50.756;4.472;2023-11-21T07:59:15;98.72;;;24.65;;
8831;SDS011;4452;50.756;4.472;2023-11-21T08:01:42;94.78;;;24.80;;
8831;SDS011;4452;50.756;4.472;2023-11-21T08:04:08;102.35;;;25.90;;
8831;SDS011;4452;50.756;4.472;2023-11-21T08:06:38;89.38;;;23.63;;
8831;SDS011;4452;50.756;4.472;2023-11-21T08:11:33;89.22;;;21.52;;
8831;SDS011;4452;50.756;4.472;2023-11-21T08:13:59;87.50;;;24.00;;
8831;SDS011;4452;50.756;4.472;2023-11-21T08:16:25;104.53;;;24.67;;
8831;SDS011;4452;50.756;4.472;2023-11-21T08:18:50;112.68;;;25.63;;
8831;SDS011;4452;50.756;4.472;2023-11-21T08:21:16;102.25;;;24.58;;
8831;SDS011;4452;50.756;4.472;2023-11-21T08:23:42;122.07;;;27.17;;
8831;SDS011;4452;50.756;4.472;2023-11-21T08:26:07;112.18;;;25.42;;
8831;SDS011;4452;50.756;4.472;2023-11-21T08:28:33;126.88;;;27.85;;
8831;SDS011;4452;50.756;4.472;2023-11-21T08:31:00;120.10;;;26.35;;
8831;SDS011;4452;50.756;4.472;2023-11-21T08:33:26;127.82;;;26.38;;
8831;SDS011;4452;50.756;4.472;2023-11-21T08:35:52;121.43;;;26.63;;
8831;SDS011;4452;50.756;4.472;2023-11-21T08:38:18;123.45;;;25.83;;
8831;SDS011;4452;50.756;4.472;2023-11-21T08:40:44;137.07;;;26.80;;
8831;SDS011;4452;50.756;4.472;2023-11-21T08:43:09;126.20;;;27.08;;
8831;SDS011;4452;50.756;4.472;2023-11-21T08:45:37;113.28;;;25.02;;
8831;SDS011;4452;50.756;4.472;2023-11-21T08:48:02;121.32;;;26.52;;
8831;SDS011;4452;50.756;4.472;2023-11-21T08:50:28;118.32;;;23.92;;
8831;SDS011;4452;50.756;4.472;2023-11-21T08:52:54;106.40;;;25.00;;
8831;SDS011;4452;50.756;4.472;2023-11-21T08:55:20;117.45;;;24.50;;
8831;SDS011;4452;50.756;4.472;2023-11-21T08:57:46;112.18;;;23.88;;
8831;SDS011;4452;50.756;4.472;2023-11-21T09:00:12;145.50;;;24.65;;
8831;SDS011;4452;50.756;4.472;2023-11-21T09:02:42;110.22;;;24.95;;
8831;SDS011;4452;50.756;4.472;2023-11-21T09:05:09;106.28;;;20.42;;
8831;SDS011;4452;50.756;4.472;2023-11-21T09:07:36;120.53;;;22.73;;
8831;SDS011;4452;50.756;4.472;2023-11-21T09:10:03;99.45;;;21.75;;
8831;SDS011;4452;50.756;4.472;2023-11-21T09:12:32;111.95;;;24.13;;
8831;SDS011;4452;50.756;4.472;2023-11-21T09:15:06;106.18;;;21.45;;
8831;SDS011;4452;50.756;4.472;2023-11-21T09:17:33;108.40;;;23.25;;
8831;SDS011;4452;50.756;4.472;2023-11-21T09:20:01;117.68;;;21.80;;
8831;SDS011;4452;50.756;4.472;2023-11-21T09:22:30;120.07;;;21.98;;
8831;SDS011;4452;50.756;4.472;2023-11-21T09:24:56;98.35;;;19.60;;
8831;SDS011;4452;50.756;4.472;2023-11-21T09:27:23;110.57;;;19.42;;
8831;SDS011;4452;50.756;4.472;2023-11-21T09:29:49;134.52;;;21.65;;
8831;SDS011;4452;50.756;4.472;2023-11-21T09:32:14;125.45;;;22.48;;
8831;SDS011;4452;50.756;4.472;2023-11-21T09:34:41;124.13;;;21.67;;
8831;SDS011;4452;50.756;4.472;2023-11-21T09:37:07;116.88;;;21.63;;
8831;SDS011;4452;50.756;4.472;2023-11-21T09:39:33;110.32;;;19.65;;
8831;SDS011;4452;50.756;4.472;2023-11-21T09:42:23;127.55;;;21.48;;
8831;SDS011;4452;50.756;4.472;2023-11-21T09:44:58;109.00;;;19.02;;
8831;SDS011;4452;50.756;4.472;2023-11-21T09:47:29;117.07;;;20.65;;
8831;SDS011;4452;50.756;4.472;2023-11-21T09:49:56;120.43;;;23.80;;
8831;SDS011;4452;50.756;4.472;2023-11-21T09:52:26;121.63;;;22.25;;
8831;SDS011;4452;50.756;4.472;2023-11-21T09:54:53;125.13;;;21.73;;
8831;SDS011;4452;50.756;4.472;2023-11-21T09:57:22;178.45;;;24.33;;
8831;SDS011;4452;50.756;4.472;2023-11-21T09:59:53;129.77;;;22.10;;
8831;SDS011;4452;50.756;4.472;2023-11-21T10:02:27;109.93;;;19.38;;
8831;SDS011;4452;50.756;4.472;2023-11-21T10:04:58;97.50;;;18.95;;
8831;SDS011;4452;50.756;4.472;2023-11-21T10:07:25;96.38;;;19.63;;
8831;SDS011;4452;50.756;4.472;2023-11-21T10:09:51;89.63;;;19.55;;
8831;SDS011;4452;50.756;4.472;2023-11-21T10:12:19;85.43;;;18.42;;
8831;SDS011;4452;50.756;4.472;2023-11-21T10:14:47;87.90;;;19.35;;
8831;SDS011;4452;50.756;4.472;2023-11-21T10:17:14;81.82;;;19.65;;
8831;SDS011;4452;50.756;4.472;2023-11-21T10:20:04;81.60;;;18.33;;
8831;SDS011;4452;50.756;4.472;2023-11-21T10:22:37;97.10;;;21.13;;
8831;SDS011;4452;50.756;4.472;2023-11-21T10:25:08;88.40;;;19.75;;
8831;SDS011;4452;50.756;4.472;2023-11-21T10:27:37;97.05;;;21.20;;
8831;SDS011;4452;50.756;4.472;2023-11-21T10:30:06;91.28;;;19.17;;
8831;SDS011;4452;50.756;4.472;2023-11-21T10:32:38;98.67;;;22.53;;
8831;SDS011;4452;50.756;4.472;2023-11-21T10:35:10;171.35;;;22.42;;
8831;SDS011;4452;50.756;4.472;2023-11-21T10:37:39;109.38;;;22.40;;
8831;SDS011;4452;50.756;4.472;2023-11-21T10:40:07;100.97;;;21.10;;
8831;SDS011;4452;50.756;4.472;2023-11-21T10:42:39;98.93;;;22.60;;
8831;SDS011;4452;50.756;4.472;2023-11-21T10:45:11;104.75;;;23.25;;
8831;SDS011;4452;50.756;4.472;2023-11-21T10:47:41;111.85;;;24.50;;
8831;SDS011;4452;50.756;4.472;2023-11-21T10:50:11;110.28;;;24.13;;
8831;SDS011;4452;50.756;4.472;2023-11-21T10:52:40;96.97;;;20.85;;
8831;SDS011;4452;50.756;4.472;2023-11-21T10:55:16;103.78;;;23.95;;
8831;SDS011;4452;50.756;4.472;2023-11-21T10:57:48;110.13;;;23.88;;
8831;SDS011;4452;50.756;4.472;2023-11-21T11:00:16;95.80;;;22.02;;
8831;SDS011;4452;50.756;4.472;2023-11-21T11:02:45;93.60;;;23.63;;
8831;SDS011;4452;50.756;4.472;2023-11-21T11:05:15;82.95;;;22.95;;
8831;SDS011;4452;50.756;4.472;2023-11-21T11:07:44;66.63;;;17.83;;
8831;SDS011;4452;50.756;4.472;2023-11-21T11:10:13;77.55;;;20.23;;
8831;SDS011;4452;50.756;4.472;2023-11-21T11:12:42;68.40;;;18.55;;
8831;SDS011;4452;50.756;4.472;2023-11-21T11:15:12;84.40;;;18.20;;
8831;SDS011;4452;50.756;4.472;2023-11-21T11:17:39;72.65;;;19.80;;
8831;SDS011;4452;50.756;4.472;2023-11-21T11:20:05;71.40;;;19.02;;
8831;SDS011;4452;50.756;4.472;2023-11-21T11:22:47;71.35;;;20.10;;
8831;SDS011;4452;50.756;4.472;2023-11-21T11:28:59;56.30;;;16.63;;
8831;SDS011;4452;50.756;4.472;2023-11-21T11:31:31;50.42;;;15.75;;
8831;SDS011;4452;50.756;4.472;2023-11-21T11:34:26;44.92;;;11.93;;
8831;SDS011;4452;50.756;4.472;2023-11-21T11:37:07;59.33;;;15.60;;
8831;SDS011;4452;50.756;4.472;2023-11-21T11:39:40;50.53;;;14.55;;
8831;SDS011;4452;50.756;4.472;2023-11-21T11:42:10;54.20;;;16.75;;
8831;SDS011;4452;50.756;4.472;2023-11-21T11:47:31;50.38;;;13.40;;
8831;SDS011;4452;50.756;4.472;2023-11-21T11:50:12;44.20;;;13.35;;
8831;SDS011;4452;50.756;4.472;2023-11-21T11:55:06;48.97;;;15.82;;
8831;SDS011;4452;50.756;4.472;2023-11-21T11:57:35;46.55;;;15.85;;
8831;SDS011;4452;50.756;4.472;2023-11-21T12:00:14;44.22;;;15.05;;
8831;SDS011;4452;50.756;4.472;2023-11-21T12:02:41;50.20;;;15.88;;
8831;SDS011;4452;50.756;4.472;2023-11-21T12:05:14;53.08;;;17.48;;
8831;SDS011;4452;50.756;4.472;2023-11-21T12:10:19;62.30;;;17.17;;
8831;SDS011;4452;50.756;4.472;2023-11-21T12:15:23;52.67;;;16.42;;
8831;SDS011;4452;50.756;4.472;2023-11-21T12:17:50;42.97;;;16.20;;
8831;SDS011;4452;50.756;4.472;2023-11-21T12:20:20;51.08;;;18.00;;
8831;SDS011;4452;50.756;4.472;2023-11-21T12:22:48;35.70;;;12.70;;
8831;SDS011;4452;50.756;4.472;2023-11-21T12:25:26;41.95;;;15.52;;
8831;SDS011;4452;50.756;4.472;2023-11-21T12:27:54;27.67;;;11.10;;
8831;SDS011;4452;50.756;4.472;2023-11-21T12:30:23;39.38;;;14.55;;
8831;SDS011;4452;50.756;4.472;2023-11-21T12:32:50;32.70;;;13.25;;
8831;SDS011;4452;50.756;4.472;2023-11-21T12:35:17;33.38;;;12.63;;
8831;SDS011;4452;50.756;4.472;2023-11-21T12:37:47;31.20;;;12.02;;
8831;SDS011;4452;50.756;4.472;2023-11-21T12:40:13;32.97;;;11.77;;
8831;SDS011;4452;50.756;4.472;2023-11-21T12:42:40;29.50;;;11.68;;
8831;SDS011;4452;50.756;4.472;2023-11-21T12:47:43;30.98;;;12.00;;
8831;SDS011;4452;50.756;4.472;2023-11-21T12:50:12;24.95;;;11.68;;
8831;SDS011;4452;50.756;4.472;2023-11-21T12:52:41;25.63;;;11.27;;
8831;SDS011;4452;50.756;4.472;2023-11-21T12:55:12;31.17;;;11.65;;
8831;SDS011;4452;50.756;4.472;2023-11-21T12:57:47;24.05;;;10.30;;
8831;SDS011;4452;50.756;4.472;2023-11-21T13:00:19;32.63;;;12.13;;
8831;SDS011;4452;50.756;4.472;2023-11-21T13:02:53;23.98;;;11.27;;
8831;SDS011;4452;50.756;4.472;2023-11-21T13:05:32;21.35;;;10.20;;
8831;SDS011;4452;50.756;4.472;2023-11-21T13:08:03;24.02;;;10.57;;
8831;SDS011;4452;50.756;4.472;2023-11-21T13:10:32;23.88;;;11.68;;
8831;SDS011;4452;50.756;4.472;2023-11-21T13:13:01;27.00;;;12.90;;
8831;SDS011;4452;50.756;4.472;2023-11-21T13:15:30;26.67;;;12.73;;
8831;SDS011;4452;50.756;4.472;2023-11-21T13:17:57;35.00;;;13.52;;
8831;SDS011;4452;50.756;4.472;2023-11-21T13:20:24;31.88;;;13.13;;
8831;SDS011;4452;50.756;4.472;2023-11-21T13:22:54;31.60;;;12.95;;
8831;SDS011;4452;50.756;4.472;2023-11-21T13:25:24;31.02;;;11.70;;
8831;SDS011;4452;50.756;4.472;2023-11-21T13:27:54;23.15;;;11.63;;
8831;SDS011;4452;50.756;4.472;2023-11-21T13:30:20;24.65;;;11.13;;
8831;SDS011;4452;50.756;4.472;2023-11-21T13:32:56;20.57;;;9.43;;
8831;SDS011;4452;50.756;4.472;2023-11-21T13:35:25;16.48;;;7.65;;
8831;SDS011;4452;50.756;4.472;2023-11-21T13:38:12;19.73;;;9.57;;
8831;SDS011;4452;50.756;4.472;2023-11-21T13:40:41;20.30;;;10.07;;
8831;SDS011;4452;50.756;4.472;2023-11-21T13:43:13;21.00;;;10.88;;
8831;SDS011;4452;50.756;4.472;2023-11-21T13:45:40;23.13;;;10.40;;
8831;SDS011;4452;50.756;4.472;2023-11-21T13:48:07;22.55;;;9.82;;
8831;SDS011;4452;50.756;4.472;2023-11-21T13:50:38;19.25;;;9.18;;
8831;SDS011;4452;50.756;4.472;2023-11-21T13:53:20;17.77;;;9.27;;
8831;SDS011;4452;50.756;4.472;2023-11-21T13:55:53;18.25;;;6.70;;
8831;SDS011;4452;50.756;4.472;2023-11-21T13:58:23;12.10;;;7.00;;
8831;SDS011;4452;50.756;4.472;2023-11-21T14:01:00;19.08;;;6.15;;
8831;SDS011;4452;50.756;4.472;2023-11-21T14:03:26;9.93;;;5.13;;
8831;SDS011;4452;50.756;4.472;2023-11-21T14:06:04;7.65;;;5.35;;
8831;SDS011;4452;50.756;4.472;2023-11-21T14:08:39;10.60;;;5.43;;
8831;SDS011;4452;50.756;4.472;2023-11-21T14:11:06;10.77;;;6.00;;
8831;SDS011;4452;50.756;4.472;2023-11-21T14:13:32;8.88;;;5.60;;
8831;SDS011;4452;50.756;4.472;2023-11-21T14:15:58;10.07;;;7.15;;
8831;SDS011;4452;50.756;4.472;2023-11-21T14:18:26;10.30;;;6.22;;
8831;SDS011;4452;50.756;4.472;2023-11-21T14:20:56;8.20;;;5.53;;
8831;SDS011;4452;50.756;4.472;2023-11-21T14:23:22;9.95;;;6.50;;
8831;SDS011;4452;50.756;4.472;2023-11-21T14:25:48;12.82;;;5.80;;
8831;SDS011;4452;50.756;4.472;2023-11-21T14:28:15;11.10;;;6.38;;
8831;SDS011;4452;50.756;4.472;2023-11-21T14:30:41;15.55;;;6.22;;
8831;SDS011;4452;50.756;4.472;2023-11-21T14:33:07;8.68;;;5.53;;
8831;SDS011;4452;50.756;4.472;2023-11-21T14:35:36;11.10;;;6.10;;
8831;SDS011;4452;50.756;4.472;2023-11-21T14:38:02;9.55;;;6.22;;
8831;SDS011;4452;50.756;4.472;2023-11-21T14:40:30;9.98;;;5.88;;
8831;SDS011;4452;50.756;4.472;2023-11-21T14:43:04;11.68;;;5.85;;
8831;SDS011;4452;50.756;4.472;2023-11-21T14:45:33;8.98;;;5.55;;
8831;SDS011;4452;50.756;4.472;2023-11-21T14:48:00;10.68;;;5.50;;
8831;SDS011;4452;50.756;4.472;2023-11-21T14:50:51;6.47;;;4.93;;
8831;SDS011;4452;50.756;4.472;2023-11-21T14:53:28;7.68;;;5.28;;
8831;SDS011;4452;50.756;4.472;2023-11-21T14:56:21;8.02;;;5.40;;
8831;SDS011;4452;50.756;4.472;2023-11-21T14:58:54;12.93;;;5.45;;
8831;SDS011;4452;50.756;4.472;2023-11-21T15:01:21;8.65;;;5.53;;
8831;SDS011;4452;50.756;4.472;2023-11-21T15:04:07;8.93;;;6.10;;
8831;SDS011;4452;50.756;4.472;2023-11-21T15:06:33;9.95;;;5.32;;
8831;SDS011;4452;50.756;4.472;2023-11-21T15:08:59;10.95;;;5.65;;